createdAt,value
2017-07-27T00:00:19.360Z,0
2017-07-27T00:01:29.317Z,0
2017-07-27T00:02:38.960Z,0
2017-07-27T00:03:48.920Z,0
2017-07-27T00:04:58.568Z,0
2017-07-27T00:06:08.839Z,0
2017-07-27T00:07:19.109Z,0
2017-07-27T00:08:29.064Z,0
2017-07-27T00:09:39.022Z,0
2017-07-27T00:10:49.305Z,0
2017-07-27T00:11:59.572Z,0
2017-07-27T00:13:09.849Z,0
2017-07-27T00:14:19.806Z,0
2017-07-27T00:15:29.458Z,0
2017-07-27T00:16:39.729Z,0
2017-07-27T00:17:49.998Z,0
2017-07-27T00:19:00.279Z,0
2017-07-27T00:20:10.562Z,0
2017-07-27T00:21:20.520Z,0
2017-07-27T00:22:30.787Z,0
2017-07-27T00:23:41.058Z,0
2017-07-27T00:24:51.027Z,0
2017-07-27T00:26:01.300Z,0
2017-07-27T00:27:11.580Z,0
2017-07-27T00:28:21.536Z,0
2017-07-27T00:29:31.809Z,0
2017-07-27T00:30:42.084Z,0
2017-07-27T00:31:52.043Z,0
2017-07-27T00:33:04.317Z,0
2017-07-27T00:34:14.276Z,0
2017-07-27T00:35:24.551Z,0
2017-07-27T00:36:34.511Z,0
2017-07-27T00:37:44.479Z,0
2017-07-27T00:38:54.440Z,0
2017-07-27T00:40:04.727Z,0
2017-07-27T00:41:14.376Z,0
2017-07-27T00:42:24.646Z,0
2017-07-27T00:43:34.285Z,0
2017-07-27T00:44:44.556Z,0
2017-07-27T00:45:54.841Z,0
2017-07-27T00:47:04.799Z,0
2017-07-27T00:48:15.089Z,0
2017-07-27T00:49:25.362Z,0
2017-07-27T00:50:35.640Z,0
2017-07-27T00:51:45.602Z,0
2017-07-27T00:52:55.866Z,0
2017-07-27T00:54:06.133Z,0
2017-07-27T00:55:16.094Z,0
2017-07-27T00:56:26.375Z,0
2017-07-27T00:57:36.335Z,0
2017-07-27T00:58:46.607Z,0
2017-07-27T00:59:56.562Z,0
2017-07-27T01:01:06.842Z,0
2017-07-27T01:02:16.801Z,0
2017-07-27T01:03:27.069Z,0
2017-07-27T01:04:37.349Z,0
2017-07-27T01:05:47.305Z,0
2017-07-27T01:06:57.263Z,0
2017-07-27T01:08:07.233Z,0
2017-07-27T01:09:16.875Z,0
2017-07-27T01:10:27.143Z,0
2017-07-27T01:11:37.417Z,0
2017-07-27T01:12:47.373Z,0
2017-07-27T01:13:57.658Z,0
2017-07-27T01:15:07.302Z,0
2017-07-27T01:16:17.570Z,0
2017-07-27T01:17:27.839Z,0
2017-07-27T01:18:37.809Z,0
2017-07-27T01:19:48.078Z,0
2017-07-27T01:20:58.378Z,0
2017-07-27T01:22:08.335Z,0
2017-07-27T01:23:18.604Z,0
2017-07-27T01:24:28.880Z,0
2017-07-27T01:25:39.155Z,0
2017-07-27T01:26:48.798Z,0
2017-07-27T01:27:59.071Z,0
2017-07-27T01:29:09.338Z,0
2017-07-27T01:30:19.609Z,0
2017-07-27T01:31:29.891Z,0
2017-07-27T01:32:40.160Z,0
2017-07-27T01:33:50.436Z,0
2017-07-27T01:35:00.704Z,0
2017-07-27T01:36:10.350Z,0
2017-07-27T01:37:20.620Z,0
2017-07-27T01:38:30.888Z,0
2017-07-27T01:39:40.842Z,0
2017-07-27T01:40:51.115Z,0
2017-07-27T01:42:01.410Z,0
2017-07-27T01:43:11.685Z,0
2017-07-27T01:44:21.967Z,0
2017-07-27T01:45:32.235Z,0
2017-07-27T01:46:41.249Z,0
2017-07-27T01:47:51.526Z,0
2017-07-27T01:49:01.487Z,0
2017-07-27T01:50:11.132Z,4
2017-07-27T01:51:21.087Z,4
2017-07-27T01:52:31.361Z,4
2017-07-27T01:53:41.629Z,4
2017-07-27T01:54:51.898Z,4
2017-07-27T01:56:01.856Z,0
2017-07-27T01:57:12.134Z,0
2017-07-27T01:58:22.410Z,4
2017-07-27T01:59:32.689Z,4
2017-07-27T02:00:42.645Z,4
2017-07-27T02:01:52.923Z,8
2017-07-27T02:03:02.572Z,4
2017-07-27T02:04:12.845Z,4
2017-07-27T02:05:23.117Z,4
2017-07-27T02:06:33.451Z,8
2017-07-27T02:07:43.725Z,8
2017-07-27T02:08:53.679Z,4
2017-07-27T02:10:03.637Z,4
2017-07-27T02:11:13.913Z,4
2017-07-27T02:12:24.438Z,8
2017-07-27T02:13:34.407Z,8
2017-07-27T02:14:44.680Z,8
2017-07-27T02:15:54.951Z,8
2017-07-27T02:17:05.224Z,8
2017-07-27T02:18:17.020Z,8
2017-07-27T02:19:27.295Z,8
2017-07-27T02:20:37.567Z,8
2017-07-27T02:21:47.526Z,8
2017-07-27T02:22:57.491Z,12
2017-07-27T02:24:07.761Z,16
2017-07-27T02:25:17.717Z,16
2017-07-27T02:26:27.673Z,20
2017-07-27T02:27:37.637Z,24
2017-07-27T02:28:47.918Z,24
2017-07-27T02:29:57.879Z,28
2017-07-27T02:31:08.157Z,32
2017-07-27T02:32:18.433Z,40
2017-07-27T02:33:28.755Z,48
2017-07-27T02:34:38.403Z,52
2017-07-27T02:35:48.672Z,56
2017-07-27T02:36:58.331Z,60
2017-07-27T02:38:08.605Z,64
2017-07-27T02:39:18.893Z,72
2017-07-27T02:40:29.173Z,76
2017-07-27T02:41:39.132Z,80
2017-07-27T02:42:49.097Z,84
2017-07-27T02:43:59.383Z,84
2017-07-27T02:45:09.355Z,80
2017-07-27T02:46:19.314Z,80
2017-07-27T02:47:29.585Z,84
2017-07-27T02:48:39.224Z,84
2017-07-27T02:49:49.493Z,88
2017-07-27T02:50:59.774Z,88
2017-07-27T02:52:10.046Z,88
2017-07-27T02:53:19.684Z,88
2017-07-27T02:54:29.658Z,88
2017-07-27T02:55:39.306Z,96
2017-07-27T02:56:49.573Z,100
2017-07-27T02:57:59.846Z,108
2017-07-27T02:59:11.807Z,116
2017-07-27T03:00:21.767Z,124
2017-07-27T03:01:32.037Z,140
2017-07-27T03:02:42.014Z,156
2017-07-27T03:03:52.283Z,172
2017-07-27T03:05:02.551Z,160
2017-07-27T03:06:12.197Z,148
2017-07-27T03:07:22.153Z,168
2017-07-27T03:08:32.429Z,200
2017-07-27T03:09:42.698Z,216
2017-07-27T03:10:52.973Z,220
2017-07-27T03:12:03.245Z,220
2017-07-27T03:13:13.517Z,212
2017-07-27T03:14:23.796Z,204
2017-07-27T03:15:34.074Z,204
2017-07-27T03:16:44.033Z,212
2017-07-27T03:17:53.988Z,216
2017-07-27T03:19:04.256Z,216
2017-07-27T03:20:14.530Z,204
2017-07-27T03:21:24.488Z,200
2017-07-27T03:22:34.762Z,208
2017-07-27T03:23:44.715Z,236
2017-07-27T03:24:54.983Z,296
2017-07-27T03:26:04.656Z,360
2017-07-27T03:27:14.921Z,388
2017-07-27T03:28:25.192Z,384
2017-07-27T03:29:35.464Z,384
2017-07-27T03:30:45.759Z,416
2017-07-27T03:31:56.052Z,428
2017-07-27T03:33:06.326Z,412
2017-07-27T03:34:15.970Z,388
2017-07-27T03:35:26.240Z,384
2017-07-27T03:36:35.885Z,384
2017-07-27T03:37:46.161Z,420
2017-07-27T03:38:55.804Z,460
2017-07-27T03:40:05.766Z,496
2017-07-27T03:41:16.044Z,508
2017-07-27T03:42:26.324Z,516
2017-07-27T03:43:36.593Z,500
2017-07-27T03:44:46.864Z,496
2017-07-27T03:45:56.821Z,512
2017-07-27T03:47:07.090Z,532
2017-07-27T03:48:17.368Z,552
2017-07-27T03:49:27.638Z,564
2017-07-27T03:50:37.909Z,560
2017-07-27T03:51:47.865Z,552
2017-07-27T03:52:57.513Z,528
2017-07-27T03:54:07.481Z,528
2017-07-27T03:55:17.130Z,552
2017-07-27T03:56:27.412Z,580
2017-07-27T03:57:37.366Z,612
2017-07-27T03:58:47.638Z,660
2017-07-27T03:59:57.300Z,712
2017-07-27T04:01:07.571Z,756
2017-07-27T04:02:17.526Z,788
2017-07-27T04:03:27.487Z,808
2017-07-27T04:04:37.781Z,812
2017-07-27T04:05:47.735Z,828
2017-07-27T04:06:58.009Z,844
2017-07-27T04:08:07.963Z,856
2017-07-27T04:09:18.248Z,876
2017-07-27T04:10:28.219Z,900
2017-07-27T04:11:38.198Z,936
2017-07-27T04:12:48.466Z,980
2017-07-27T04:13:58.738Z,1012
2017-07-27T04:15:09.016Z,1024
2017-07-27T04:16:19.291Z,1036
2017-07-27T04:17:29.561Z,1052
2017-07-27T04:18:39.518Z,1080
2017-07-27T04:19:49.792Z,1128
2017-07-27T04:20:59.751Z,1180
2017-07-27T04:22:09.728Z,1228
2017-07-27T04:23:20.002Z,1248
2017-07-27T04:24:29.960Z,1244
2017-07-27T04:25:39.926Z,1264
2017-07-27T04:26:50.199Z,1280
2017-07-27T04:28:00.473Z,1280
2017-07-27T04:29:10.125Z,1248
2017-07-27T04:30:20.088Z,1224
2017-07-27T04:31:30.355Z,1268
2017-07-27T04:32:40.625Z,1316
2017-07-27T04:33:50.895Z,1348
2017-07-27T04:35:00.850Z,1356
2017-07-27T04:36:10.810Z,1352
2017-07-27T04:37:21.087Z,1392
2017-07-27T04:38:31.363Z,1396
2017-07-27T04:39:41.636Z,1392
2017-07-27T04:40:51.914Z,1380
2017-07-27T04:42:01.557Z,1348
2017-07-27T04:43:11.831Z,1272
2017-07-27T04:44:22.100Z,1168
2017-07-27T04:45:32.373Z,1080
2017-07-27T04:46:42.331Z,1016
2017-07-27T04:47:52.601Z,976
2017-07-27T04:49:02.242Z,960
2017-07-27T04:50:12.218Z,968
2017-07-27T04:51:22.175Z,968
2017-07-27T04:52:32.447Z,964
2017-07-27T04:53:42.094Z,948
2017-07-27T04:54:52.368Z,912
2017-07-27T04:56:02.634Z,864
2017-07-27T04:57:12.590Z,828
2017-07-27T04:58:22.548Z,804
2017-07-27T04:59:32.508Z,788
2017-07-27T05:00:42.471Z,800
2017-07-27T05:01:52.740Z,836
2017-07-27T05:03:02.702Z,896
2017-07-27T05:04:12.657Z,956
2017-07-27T05:05:22.619Z,992
2017-07-27T05:06:32.896Z,996
2017-07-27T05:07:43.172Z,1020
2017-07-27T05:08:53.452Z,1016
2017-07-27T05:10:03.738Z,988
2017-07-27T05:11:14.013Z,964
2017-07-27T05:12:24.293Z,980
2017-07-27T05:13:34.274Z,1068
2017-07-27T05:14:44.232Z,1224
2017-07-27T05:15:54.505Z,1416
2017-07-27T05:17:04.779Z,1624
2017-07-27T05:18:15.052Z,1844
2017-07-27T05:19:25.327Z,2152
2017-07-27T05:20:35.596Z,2504
2017-07-27T05:21:45.873Z,2744
2017-07-27T05:22:56.140Z,2800
2017-07-27T05:24:06.409Z,2660
2017-07-27T05:25:16.367Z,2452
2017-07-27T05:26:26.650Z,2244
2017-07-27T05:27:36.620Z,2000
2017-07-27T05:28:46.577Z,1796
2017-07-27T05:29:56.534Z,1696
2017-07-27T05:31:06.811Z,1752
2017-07-27T05:32:17.083Z,1924
2017-07-27T05:33:27.367Z,2148
2017-07-27T05:34:37.320Z,2388
2017-07-27T05:35:47.283Z,2564
2017-07-27T05:36:57.582Z,2668
2017-07-27T05:38:07.230Z,2636
2017-07-27T05:39:16.870Z,2604
2017-07-27T05:40:27.136Z,2708
2017-07-27T05:41:37.116Z,2932
2017-07-27T05:42:47.392Z,3000
2017-07-27T05:43:57.357Z,3064
2017-07-27T05:45:07.634Z,3120
2017-07-27T05:46:17.275Z,3112
2017-07-27T05:47:27.230Z,3020
2017-07-27T05:48:37.189Z,3048
2017-07-27T05:49:47.462Z,3124
2017-07-27T05:50:57.733Z,3088
2017-07-27T05:52:07.693Z,2976
2017-07-27T05:53:17.647Z,2944
2017-07-27T05:54:27.919Z,3104
2017-07-27T05:55:38.196Z,3296
2017-07-27T05:56:48.467Z,3500
2017-07-27T05:57:58.107Z,3672
2017-07-27T05:59:08.382Z,3604
2017-07-27T06:00:18.661Z,3412
2017-07-27T06:01:28.621Z,3356
2017-07-27T06:02:38.583Z,3324
2017-07-27T06:03:48.556Z,3232
2017-07-27T06:04:58.831Z,3116
2017-07-27T06:06:08.472Z,3052
2017-07-27T06:07:18.744Z,3080
2017-07-27T06:08:28.074Z,3128
2017-07-27T06:09:38.352Z,3008
2017-07-27T06:10:48.312Z,2884
2017-07-27T06:11:58.591Z,2844
2017-07-27T06:13:08.870Z,2884
2017-07-27T06:14:19.144Z,3144
2017-07-27T06:15:29.410Z,3472
2017-07-27T06:16:39.366Z,3592
2017-07-27T06:17:49.635Z,3616
2017-07-27T06:18:59.598Z,3688
2017-07-27T06:20:09.247Z,3668
2017-07-27T06:21:19.204Z,3536
2017-07-27T06:22:29.160Z,3368
2017-07-27T06:23:39.437Z,3324
2017-07-27T06:24:49.720Z,3248
2017-07-27T06:26:00.002Z,3236
2017-07-27T06:27:09.959Z,3232
2017-07-27T06:28:20.245Z,3184
2017-07-27T06:29:30.521Z,3264
2017-07-27T06:30:40.495Z,3372
2017-07-27T06:31:50.767Z,3472
2017-07-27T06:33:00.732Z,3576
2017-07-27T06:34:10.374Z,3728
2017-07-27T06:35:20.334Z,3676
2017-07-27T06:36:30.608Z,3556
2017-07-27T06:37:40.881Z,3640
2017-07-27T06:38:50.846Z,3636
2017-07-27T06:40:01.119Z,3444
2017-07-27T06:41:11.077Z,3128
2017-07-27T06:42:21.042Z,2900
2017-07-27T06:43:31.313Z,2720
2017-07-27T06:44:41.586Z,2728
2017-07-27T06:45:51.546Z,2616
2017-07-27T06:47:01.194Z,2548
2017-07-27T06:48:11.153Z,2584
2017-07-27T06:49:21.434Z,2612
2017-07-27T06:50:31.751Z,2552
2017-07-27T06:51:41.709Z,2720
2017-07-27T06:52:53.975Z,3080
2017-07-27T06:54:04.256Z,3176
2017-07-27T06:55:14.530Z,2900
2017-07-27T06:56:24.813Z,2848
2017-07-27T06:57:34.769Z,2872
2017-07-27T06:58:45.047Z,2804
2017-07-27T06:59:55.375Z,3016
2017-07-27T07:01:05.645Z,3476
2017-07-27T07:02:15.928Z,4112
2017-07-27T07:03:26.208Z,4624
2017-07-27T07:04:36.486Z,4780
2017-07-27T07:05:46.441Z,4392
2017-07-27T07:06:56.411Z,4324
2017-07-27T07:08:06.690Z,4564
2017-07-27T07:09:16.643Z,4604
2017-07-27T07:10:26.923Z,4496
2017-07-27T07:11:36.880Z,4548
2017-07-27T07:12:47.155Z,4868
2017-07-27T07:13:57.427Z,5208
2017-07-27T07:15:07.387Z,5344
2017-07-27T07:16:17.660Z,5212
2017-07-27T07:17:27.655Z,5152
2017-07-27T07:18:37.951Z,5020
2017-07-27T07:19:48.220Z,4960
2017-07-27T07:20:58.491Z,4504
2017-07-27T07:22:08.133Z,3788
2017-07-27T07:23:18.405Z,3036
2017-07-27T07:24:28.362Z,2576
2017-07-27T07:25:38.635Z,2600
2017-07-27T07:26:48.906Z,2708
2017-07-27T07:27:58.554Z,2784
2017-07-27T07:29:08.829Z,2764
2017-07-27T07:30:19.101Z,2872
2017-07-27T07:31:29.370Z,3416
2017-07-27T07:32:39.639Z,4584
2017-07-27T07:33:49.940Z,5800
2017-07-27T07:35:00.267Z,6032
2017-07-27T07:36:09.911Z,5804
2017-07-27T07:37:20.186Z,5300
2017-07-27T07:38:30.482Z,4660
2017-07-27T07:39:40.755Z,4132
2017-07-27T07:40:50.713Z,3780
2017-07-27T07:42:00.989Z,3520
2017-07-27T07:43:10.318Z,3220
2017-07-27T07:44:20.592Z,3200
2017-07-27T07:45:30.556Z,3548
2017-07-27T07:46:40.832Z,3376
2017-07-27T07:47:50.482Z,2696
2017-07-27T07:49:00.757Z,2040
2017-07-27T07:50:11.031Z,1744
2017-07-27T07:51:21.305Z,1728
2017-07-27T07:52:31.591Z,1772
2017-07-27T07:53:41.878Z,1748
2017-07-27T07:54:51.838Z,1724
2017-07-27T07:56:01.808Z,2160
2017-07-27T07:57:12.079Z,2712
2017-07-27T07:58:22.041Z,2704
2017-07-27T07:59:32.311Z,2480
2017-07-27T08:00:42.276Z,2540
2017-07-27T08:01:52.548Z,3020
2017-07-27T08:03:02.514Z,3580
2017-07-27T08:04:12.471Z,3632
2017-07-27T08:05:22.744Z,3332
2017-07-27T08:06:32.709Z,3528
2017-07-27T08:07:42.978Z,3748
2017-07-27T08:08:52.633Z,3560
2017-07-27T08:10:02.589Z,3424
2017-07-27T08:11:12.867Z,3540
2017-07-27T08:12:23.153Z,3712
2017-07-27T08:13:33.108Z,4024
2017-07-27T08:14:43.380Z,4548
2017-07-27T08:15:53.665Z,4912
2017-07-27T08:17:03.941Z,5180
2017-07-27T08:18:14.214Z,5588
2017-07-27T08:19:24.508Z,6044
2017-07-27T08:20:34.464Z,6260
2017-07-27T08:21:44.428Z,6156
2017-07-27T08:22:54.073Z,6200
2017-07-27T08:24:04.102Z,6200
2017-07-27T08:25:14.060Z,5844
2017-07-27T08:26:24.336Z,5712
2017-07-27T08:27:34.634Z,6284
2017-07-27T08:28:44.282Z,6968
2017-07-27T08:29:54.573Z,7660
2017-07-27T08:31:04.856Z,8828
2017-07-27T08:32:14.827Z,9856
2017-07-27T08:33:25.118Z,10864
2017-07-27T08:34:35.389Z,11668
2017-07-27T08:35:45.351Z,12080
2017-07-27T08:36:55.653Z,12044
2017-07-27T08:38:05.298Z,11992
2017-07-27T08:39:15.572Z,11604
2017-07-27T08:40:25.850Z,10772
2017-07-27T08:41:36.129Z,10240
2017-07-27T08:42:46.403Z,9956
2017-07-27T08:43:56.681Z,9768
2017-07-27T08:45:06.988Z,9568
2017-07-27T08:46:16.963Z,9604
2017-07-27T08:47:26.931Z,9416
2017-07-27T08:48:36.888Z,9548
2017-07-27T08:49:46.847Z,10028
2017-07-27T08:50:56.804Z,10348
2017-07-27T08:52:06.450Z,9732
2017-07-27T08:53:16.728Z,8884
2017-07-27T08:54:27.003Z,8496
2017-07-27T08:55:36.960Z,8180
2017-07-27T08:56:46.925Z,7776
2017-07-27T08:57:56.882Z,7548
2017-07-27T08:59:06.843Z,8268
2017-07-27T09:00:16.805Z,8924
2017-07-27T09:01:27.077Z,9068
2017-07-27T09:02:37.348Z,9316
2017-07-27T09:03:47.621Z,10652
2017-07-27T09:04:57.591Z,12244
2017-07-27T09:06:07.549Z,13568
2017-07-27T09:07:17.827Z,14928
2017-07-27T09:08:28.104Z,16416
2017-07-27T09:09:38.375Z,17600
2017-07-27T09:10:48.650Z,18368
2017-07-27T09:11:58.605Z,17856
2017-07-27T09:13:08.561Z,17088
2017-07-27T09:14:18.519Z,16480
2017-07-27T09:15:28.811Z,15540
2017-07-27T09:16:38.772Z,15504
2017-07-27T09:17:49.047Z,16012
2017-07-27T09:18:59.330Z,17472
2017-07-27T09:20:09.605Z,18752
2017-07-27T09:21:19.574Z,19136
2017-07-27T09:22:29.530Z,18496
2017-07-27T09:23:39.804Z,17696
2017-07-27T09:24:50.080Z,17664
2017-07-27T09:26:00.039Z,16928
2017-07-27T09:27:10.325Z,16704
2017-07-27T09:28:20.284Z,16928
2017-07-27T09:29:30.561Z,15720
2017-07-27T09:30:40.841Z,15200
2017-07-27T09:31:51.130Z,14884
2017-07-27T09:33:01.407Z,14032
2017-07-27T09:34:11.370Z,12848
2017-07-27T09:35:21.344Z,12380
2017-07-27T09:36:31.632Z,12444
2017-07-27T09:37:41.902Z,12096
2017-07-27T09:38:51.862Z,12148
2017-07-27T09:40:01.537Z,12648
2017-07-27T09:41:11.822Z,12720
2017-07-27T09:42:21.782Z,12824
2017-07-27T09:43:32.062Z,12792
2017-07-27T09:44:42.027Z,13144
2017-07-27T09:45:52.301Z,13500
2017-07-27T09:47:02.016Z,14324
2017-07-27T09:48:11.989Z,14292
2017-07-27T09:49:21.974Z,14664
2017-07-27T09:50:32.255Z,15260
2017-07-27T09:51:42.531Z,17312
2017-07-27T09:52:52.809Z,19104
2017-07-27T09:54:02.522Z,20576
2017-07-27T09:55:12.797Z,20512
2017-07-27T09:56:23.074Z,19456
2017-07-27T09:57:33.035Z,18592
2017-07-27T09:58:43.310Z,18560
2017-07-27T09:59:53.277Z,18784
2017-07-27T10:01:03.558Z,18560
2017-07-27T10:02:13.520Z,18336
2017-07-27T10:03:23.797Z,19104
2017-07-27T10:04:33.762Z,19712
2017-07-27T10:05:44.050Z,19904
2017-07-27T10:06:54.331Z,20320
2017-07-27T10:08:04.614Z,20352
2017-07-27T10:09:14.890Z,19680
2017-07-27T10:10:24.853Z,19264
2017-07-27T10:11:35.130Z,19328
2017-07-27T10:12:45.409Z,19296
2017-07-27T10:13:55.709Z,19552
2017-07-27T10:15:05.989Z,18592
2017-07-27T10:16:16.272Z,17216
2017-07-27T10:17:26.236Z,17184
2017-07-27T10:18:36.517Z,16672
2017-07-27T10:19:46.790Z,16072
2017-07-27T10:20:56.754Z,14816
2017-07-27T10:22:07.031Z,13712
2017-07-27T10:23:16.995Z,12628
2017-07-27T10:24:27.293Z,11740
2017-07-27T10:25:36.947Z,10588
2017-07-27T10:26:47.222Z,8896
2017-07-27T10:27:57.504Z,7496
2017-07-27T10:29:07.782Z,7192
2017-07-27T10:30:17.751Z,7904
2017-07-27T10:31:28.025Z,8392
2017-07-27T10:32:37.673Z,8456
2017-07-27T10:33:47.640Z,8716
2017-07-27T10:34:57.911Z,9348
2017-07-27T10:36:07.874Z,10948
2017-07-27T10:37:17.838Z,12636
2017-07-27T10:38:27.813Z,13392
2017-07-27T10:39:37.792Z,13612
2017-07-27T10:40:48.066Z,14784
2017-07-27T10:41:58.338Z,15360
2017-07-27T10:43:08.343Z,15344
2017-07-27T10:44:18.630Z,15112
2017-07-27T10:45:28.591Z,14832
2017-07-27T10:46:38.237Z,14580
2017-07-27T10:47:48.516Z,14368
2017-07-27T10:48:58.792Z,14224
2017-07-27T10:50:08.500Z,14056
2017-07-27T10:51:18.776Z,13668
2017-07-27T10:52:29.054Z,13172
2017-07-27T10:53:38.702Z,12576
2017-07-27T10:54:48.976Z,12040
2017-07-27T10:55:58.940Z,12104
2017-07-27T10:57:08.911Z,12820
2017-07-27T10:58:18.883Z,13892
2017-07-27T10:59:29.156Z,14772
2017-07-27T11:00:39.429Z,15536
2017-07-27T11:01:49.704Z,16320
2017-07-27T11:02:59.675Z,16768
2017-07-27T11:04:09.636Z,17216
2017-07-27T11:05:19.601Z,17696
2017-07-27T11:06:29.877Z,18208
2017-07-27T11:07:39.523Z,18624
2017-07-27T11:08:49.492Z,18880
2017-07-27T11:09:59.767Z,19008
2017-07-27T11:11:09.733Z,18848
2017-07-27T11:12:20.011Z,18496
2017-07-27T11:13:30.290Z,17536
2017-07-27T11:14:40.255Z,16704
2017-07-27T11:15:50.223Z,18944
2017-07-27T11:17:00.188Z,21664
2017-07-27T11:18:09.837Z,22912
2017-07-27T11:19:19.802Z,23488
2017-07-27T11:20:30.090Z,24800
2017-07-27T11:21:40.370Z,25792
2017-07-27T11:22:50.332Z,26656
2017-07-27T11:23:59.982Z,27296
2017-07-27T11:25:10.264Z,28064
2017-07-27T11:26:20.230Z,27776
2017-07-27T11:27:30.218Z,25984
2017-07-27T11:28:40.492Z,25376
2017-07-27T11:29:50.767Z,25504
2017-07-27T11:31:01.075Z,26208
2017-07-27T11:32:11.351Z,26240
2017-07-27T11:33:21.631Z,25216
2017-07-27T11:34:31.280Z,25536
2017-07-27T11:35:41.561Z,25728
2017-07-27T11:36:51.525Z,25248
2017-07-27T11:38:01.813Z,24288
2017-07-27T11:39:14.104Z,27648
2017-07-27T11:40:24.074Z,46208
2017-07-27T11:41:34.039Z,25056
2017-07-27T11:42:44.324Z,27072
2017-07-27T11:43:54.285Z,19552
2017-07-27T11:45:04.591Z,14632
2017-07-27T11:46:14.556Z,15272
2017-07-27T11:47:24.522Z,15272
2017-07-27T11:48:34.490Z,16640
2017-07-27T11:49:44.770Z,23808
2017-07-27T11:50:55.053Z,51648
2017-07-27T11:52:05.333Z,46496
2017-07-27T11:53:15.614Z,53152
2017-07-27T11:54:25.893Z,34976
2017-07-27T11:55:35.865Z,23616
2017-07-27T11:56:45.868Z,20960
2017-07-27T11:57:55.832Z,31712
2017-07-27T11:59:06.145Z,29408
2017-07-27T12:00:16.430Z,37344
2017-07-27T12:01:26.714Z,45568
2017-07-27T12:02:37.036Z,46496
2017-07-27T12:03:47.002Z,45696
2017-07-27T12:04:56.980Z,44832
2017-07-27T12:06:07.256Z,22560
2017-07-27T12:07:16.909Z,32160
2017-07-27T12:08:27.195Z,36128
2017-07-27T12:09:37.474Z,39712
2017-07-27T12:10:47.764Z,36576
2017-07-27T12:11:58.040Z,33248
2017-07-27T12:13:08.337Z,22144
2017-07-27T12:14:18.617Z,20320
2017-07-27T12:15:28.269Z,23296
2017-07-27T12:16:38.234Z,19136
2017-07-27T12:17:48.203Z,17312
2017-07-27T12:18:58.493Z,16320
2017-07-27T12:20:08.466Z,15672
2017-07-27T12:21:18.748Z,16352
2017-07-27T12:22:28.724Z,19040
2017-07-27T12:23:39.006Z,22848
2017-07-27T12:24:48.974Z,23936
2017-07-27T12:25:59.257Z,25792
2017-07-27T12:27:08.906Z,27040
2017-07-27T12:28:19.196Z,26240
2017-07-27T12:29:29.162Z,25504
2017-07-27T12:30:39.446Z,24352
2017-07-27T12:31:49.728Z,23744
2017-07-27T12:32:59.395Z,23968
2017-07-27T12:34:09.675Z,24832
2017-07-27T12:35:19.638Z,25664
2017-07-27T12:36:29.600Z,26112
2017-07-27T12:37:39.884Z,26016
2017-07-27T12:38:50.163Z,24288
2017-07-27T12:39:59.819Z,20480
2017-07-27T12:41:10.100Z,20224
2017-07-27T12:42:20.065Z,16896
2017-07-27T12:43:30.343Z,14684
2017-07-27T12:44:40.626Z,13672
2017-07-27T12:45:50.907Z,12272
2017-07-27T12:47:01.187Z,10052
2017-07-27T12:48:11.469Z,8104
2017-07-27T12:49:21.757Z,7276
2017-07-27T12:50:32.046Z,6920
2017-07-27T12:51:42.327Z,6336
2017-07-27T12:52:52.619Z,5720
2017-07-27T12:54:02.898Z,4840
2017-07-27T12:55:12.863Z,4088
2017-07-27T12:56:23.145Z,3644
2017-07-27T12:57:33.429Z,3420
2017-07-27T12:58:43.710Z,3460
2017-07-27T12:59:53.988Z,3828
2017-07-27T13:01:03.635Z,4328
2017-07-27T13:02:13.920Z,4724
2017-07-27T13:03:24.204Z,4996
2017-07-27T13:04:34.477Z,5280
2017-07-27T13:05:44.469Z,5532
2017-07-27T13:06:54.446Z,5808
2017-07-27T13:08:04.406Z,6104
2017-07-27T13:09:14.686Z,6416
2017-07-27T13:10:24.650Z,6820
2017-07-27T13:11:34.927Z,7316
2017-07-27T13:12:45.087Z,7680
2017-07-27T13:13:55.052Z,7764
2017-07-27T13:15:04.698Z,7764
2017-07-27T13:16:14.674Z,7936
2017-07-27T13:17:24.954Z,8316
2017-07-27T13:18:34.915Z,8840
2017-07-27T13:19:44.877Z,9640
2017-07-27T13:20:54.859Z,10460
2017-07-27T13:22:05.135Z,11768
2017-07-27T13:23:14.468Z,12708
2017-07-27T13:24:24.753Z,14092
2017-07-27T13:25:34.717Z,15032
2017-07-27T13:26:44.993Z,14372
2017-07-27T13:27:55.273Z,13892
2017-07-27T13:29:05.573Z,13540
2017-07-27T13:30:15.852Z,13356
2017-07-27T13:31:26.132Z,13448
2017-07-27T13:32:35.792Z,13848
2017-07-27T13:33:46.069Z,14212
2017-07-27T13:34:56.344Z,14980
2017-07-27T13:36:06.310Z,14876
2017-07-27T13:37:16.588Z,14712
2017-07-27T13:38:26.868Z,14472
2017-07-27T13:39:36.827Z,13624
2017-07-27T13:40:46.787Z,12672
2017-07-27T13:41:57.058Z,11712
2017-07-27T13:43:06.391Z,10840
2017-07-27T13:44:16.669Z,9928
2017-07-27T13:45:26.951Z,9008
2017-07-27T13:46:36.933Z,8216
2017-07-27T13:47:47.212Z,7536
2017-07-27T13:48:57.486Z,7084
2017-07-27T13:50:07.763Z,6892
2017-07-27T13:51:18.049Z,6888
2017-07-27T13:52:28.322Z,6944
2017-07-27T13:53:38.599Z,7008
2017-07-27T13:54:48.878Z,7080
2017-07-27T13:55:58.837Z,7168
2017-07-27T13:57:08.485Z,7188
2017-07-27T13:58:18.758Z,7144
2017-07-27T13:59:28.730Z,7052
2017-07-27T14:00:39.014Z,7028
2017-07-27T14:01:49.301Z,7060
2017-07-27T14:02:59.258Z,7084
2017-07-27T14:04:08.905Z,7072
2017-07-27T14:05:19.190Z,7036
2017-07-27T14:06:29.153Z,6992
2017-07-27T14:07:39.119Z,6916
2017-07-27T14:08:49.398Z,6816
2017-07-27T14:09:59.048Z,6764
2017-07-27T14:11:09.013Z,6864
2017-07-27T14:12:19.289Z,7160
2017-07-27T14:13:29.247Z,7624
2017-07-27T14:14:39.535Z,8292
2017-07-27T14:15:49.496Z,9032
2017-07-27T14:16:59.771Z,9396
2017-07-27T14:18:10.057Z,9240
2017-07-27T14:19:20.353Z,8820
2017-07-27T14:20:30.315Z,8284
2017-07-27T14:21:40.584Z,7596
2017-07-27T14:22:50.877Z,6856
2017-07-27T14:24:01.150Z,6272
2017-07-27T14:25:11.429Z,5840
2017-07-27T14:26:21.716Z,5488
2017-07-27T14:27:31.988Z,5200
2017-07-27T14:28:42.258Z,5008
2017-07-27T14:29:52.531Z,4936
2017-07-27T14:31:02.828Z,5008
2017-07-27T14:32:12.780Z,5132
2017-07-27T14:33:23.054Z,5264
2017-07-27T14:34:33.334Z,5388
2017-07-27T14:35:43.299Z,5432
2017-07-27T14:36:53.262Z,5336
2017-07-27T14:38:03.539Z,5180
2017-07-27T14:39:13.824Z,5080
2017-07-27T14:40:24.100Z,5044
2017-07-27T14:41:34.371Z,5104
2017-07-27T14:42:44.335Z,5260
2017-07-27T14:43:53.985Z,5496
2017-07-27T14:45:03.953Z,5824
2017-07-27T14:46:14.237Z,6400
2017-07-27T14:47:24.508Z,7196
2017-07-27T14:48:34.788Z,8056
2017-07-27T14:49:45.113Z,8660
2017-07-27T14:50:55.395Z,8856
2017-07-27T14:52:05.357Z,8888
2017-07-27T14:53:15.638Z,9084
2017-07-27T14:54:25.920Z,9320
2017-07-27T14:55:36.199Z,9684
2017-07-27T14:56:46.158Z,10548
2017-07-27T14:57:56.121Z,11676
2017-07-27T14:59:06.096Z,13308
2017-07-27T15:00:16.371Z,13732
2017-07-27T15:01:26.332Z,14096
2017-07-27T15:02:36.609Z,14120
2017-07-27T15:03:46.888Z,13972
2017-07-27T15:04:57.160Z,13512
2017-07-27T15:06:07.129Z,12680
2017-07-27T15:07:17.404Z,11872
2017-07-27T15:08:26.742Z,10960
2017-07-27T15:09:37.014Z,9788
2017-07-27T15:10:47.286Z,8284
2017-07-27T15:11:57.562Z,7324
2017-07-27T15:13:07.531Z,7040
2017-07-27T15:14:17.493Z,7000
2017-07-27T15:15:27.773Z,7220
2017-07-27T15:16:37.423Z,7580
2017-07-27T15:17:47.387Z,7848
2017-07-27T15:18:57.655Z,8328
2017-07-27T15:20:07.306Z,8536
2017-07-27T15:21:17.607Z,8832
2017-07-27T15:22:27.877Z,9012
2017-07-27T15:23:37.866Z,9076
2017-07-27T15:24:47.836Z,8920
2017-07-27T15:25:58.123Z,8508
2017-07-27T15:27:08.399Z,8364
2017-07-27T15:28:18.366Z,8360
2017-07-27T15:29:28.330Z,8468
2017-07-27T15:30:38.291Z,8912
2017-07-27T15:31:48.254Z,9492
2017-07-27T15:32:58.529Z,9884
2017-07-27T15:34:08.813Z,10092
2017-07-27T15:35:18.792Z,10012
2017-07-27T15:36:28.755Z,9504
2017-07-27T15:37:39.032Z,8960
2017-07-27T15:38:49.557Z,8228
2017-07-27T15:39:59.515Z,7436
2017-07-27T15:41:09.792Z,6864
2017-07-27T15:42:19.753Z,6520
2017-07-27T15:43:29.712Z,6280